Coronel FAP Francisco Secada Vignetta International Airport
SPQT : now visible

Airfield :











YOU CAN JOIN US ON...

 
LOGIN :

Register | Disclaimer

   EN    FR    IT 

 









Legend :    VFR   Marginal VFR   IFR   Intensive IFR   Very Intensive IFR
Visi :
Ceiling :
>= 8 km
>= 3000ft
5 to 8 km
1000 to 3000 ft
1500m to 5 km
500 to 1000 ft
800 to 1500m
200 to 500 ft
< 800m
< 200 ft
Symbols :   Thunderstorms  Fog  Heavy snow  Heavy precipitations  Wind > 20 kt






- Airport Elevation : 306 ft
- IATA code : IQT


SPQT - Coronel FAP Francisco Secada Vignetta International

CURRENT METAR :
  • 281300Z 12004KT 080V150 9999 FEW006 BKN080 26/24 Q1013 NOSIG RMK BIRD HAZARD RWY 06/24 PP000

EXPIRED METARs :
  • 281200Z 07003KT 9999 FEW020 BKN100 25/24 Q1013 NOSIG RMK TN23.9 BIRD HAZARD PP000
  • 281100Z 00000KT 9999 FEW020 OVC100 24/23 Q1012 RMK BIRD HAZARD PP000

TAF TAF SPQT
Valid from the 28 at 12:00 until the 29 at 12:00 UTC


281100Z 2812/2912 08004KT 9999 SCT010 BKN080 TX32/2819Z TN23/2911Z
TEMPO 2818/2822 03015KT 3000 SHRA BKN015 FEW025TCU BKN080
TEMPO 2900/2906 12000KT 4000 RADZ BKN010 FEW025CB BKN080
TEMPO 2910/2912 8000 DZ BKN005 BKN070



MET'MAP, your aeronautical weather chart ! - Copyright ORBIFLY December 2007 - Disclaimer

ORBIFLY MET'MAP TEAM :

Programming & Development : Alexandra Zaïnal
Concept & original design : Baudouin d'Aumeries
Assistance for programming : Marc-Olivier Méhu
Technical & hardware support : Manuel Goepfert

Contact : metmap@orbifly.com




SOURCES & CREDITS :

   NOAA       Earth
Advisory